createdAt,value
2022-11-17T00:02:22.580Z,32.92
2022-11-17T00:04:49.436Z,31.00
2022-11-17T00:07:16.292Z,32.83
2022-11-17T00:09:43.163Z,31.90
2022-11-17T00:12:32.670Z,30.15
2022-11-17T00:15:00.089Z,31.20
2022-11-17T00:17:26.881Z,28.52
2022-11-17T00:20:12.231Z,29.10
2022-11-17T00:22:38.978Z,31.40
2022-11-17T00:25:05.933Z,29.63
2022-11-17T00:27:32.804Z,30.60
2022-11-17T00:29:59.643Z,32.58
2022-11-17T00:32:44.857Z,30.88
2022-11-17T00:35:11.692Z,31.80
2022-11-17T00:38:03.341Z,30.13
2022-11-17T00:40:30.593Z,32.10
2022-11-17T00:42:57.329Z,34.20
2022-11-17T00:45:24.161Z,33.00
2022-11-17T00:47:50.985Z,31.70
2022-11-17T00:50:17.900Z,32.78
2022-11-17T00:52:44.719Z,33.67
2022-11-17T00:55:11.572Z,31.13
2022-11-17T00:57:38.457Z,31.38
2022-11-17T01:00:05.819Z,30.65
2022-11-17T01:02:32.650Z,30.15
2022-11-17T01:04:59.422Z,30.58
2022-11-17T01:07:26.306Z,28.38
2022-11-17T01:09:53.139Z,27.85
2022-11-17T01:12:19.948Z,30.35
2022-11-17T01:14:46.915Z,29.58
2022-11-17T01:17:13.777Z,28.27
2022-11-17T01:19:40.657Z,83.20
2022-11-17T01:22:07.573Z,63.05
2022-11-17T01:24:34.369Z,31.40
2022-11-17T01:27:01.249Z,31.10
2022-11-17T01:29:28.071Z,33.45
2022-11-17T01:31:54.827Z,31.30
2022-11-17T01:34:21.741Z,31.33
2022-11-17T01:37:07.362Z,33.08
2022-11-17T01:39:34.278Z,31.90
2022-11-17T01:42:14.875Z,33.03
2022-11-17T01:44:44.762Z,34.90
2022-11-17T01:47:35.038Z,35.08
2022-11-17T01:50:19.981Z,34.25
2022-11-17T01:52:49.028Z,31.10
2022-11-17T01:55:17.472Z,33.08
2022-11-17T01:57:50.577Z,32.55
2022-11-17T02:00:18.115Z,33.15
2022-11-17T02:02:46.435Z,30.10
2022-11-17T02:05:26.487Z,29.98
2022-11-17T02:07:55.383Z,28.42
2022-11-17T02:10:22.242Z,29.80
2022-11-17T02:12:49.657Z,28.52
2022-11-17T02:15:16.792Z,29.30
2022-11-17T02:17:44.474Z,31.42
2022-11-17T02:20:39.198Z,30.33
2022-11-17T02:23:24.249Z,26.70
2022-11-17T02:26:24.848Z,25.80
2022-11-17T02:29:20.575Z,26.23
2022-11-17T02:31:55.985Z,26.65
2022-11-17T02:34:34.912Z,25.85
2022-11-17T02:37:18.811Z,28.38
2022-11-17T02:40:00.550Z,26.65
2022-11-17T02:42:56.032Z,24.08
2022-11-17T02:45:29.670Z,24.40
2022-11-17T02:47:59.974Z,26.95
2022-11-17T02:50:29.618Z,26.85
2022-11-17T02:52:56.856Z,25.77
2022-11-17T02:55:23.708Z,26.35
2022-11-17T02:57:50.546Z,26.33
2022-11-17T03:00:19.232Z,27.95
2022-11-17T03:02:48.711Z,38.97
2022-11-17T03:05:59.555Z,26.98
2022-11-17T03:26:13.262Z,25.50
2022-11-17T03:28:42.906Z,35.00
2022-11-17T03:31:11.622Z,33.80
2022-11-17T03:33:40.755Z,27.95
2022-11-17T03:36:12.984Z,30.10
2022-11-17T03:38:50.350Z,28.70
2022-11-17T03:41:19.243Z,27.50
2022-11-17T03:43:51.843Z,30.48
2022-11-17T03:46:21.925Z,27.00
2022-11-17T03:48:58.689Z,26.30
2022-11-17T03:51:30.728Z,24.90
2022-11-17T03:53:57.755Z,24.38
2022-11-17T03:56:30.266Z,24.92
2022-11-17T03:59:19.232Z,27.63
2022-11-17T04:01:46.059Z,27.10
2022-11-17T04:04:18.246Z,24.85
2022-11-17T04:06:45.056Z,25.60
2022-11-17T04:09:12.023Z,23.58
2022-11-17T04:11:57.551Z,23.17
2022-11-17T04:14:42.995Z,22.70
2022-11-17T04:17:10.224Z,24.05
2022-11-17T04:19:37.093Z,24.38
2022-11-17T04:22:03.937Z,22.75
2022-11-17T04:24:30.755Z,22.02
2022-11-17T04:27:16.013Z,23.67
2022-11-17T04:29:42.834Z,25.17
2022-11-17T04:32:09.586Z,22.80
2022-11-17T04:34:36.453Z,25.40
2022-11-17T04:37:08.106Z,63.28
2022-11-17T04:39:38.792Z,25.85
2022-11-17T04:42:05.609Z,22.92
2022-11-17T04:44:33.548Z,22.13
2022-11-17T04:47:03.149Z,24.67
2022-11-17T04:49:31.769Z,22.98
2022-11-17T04:51:58.846Z,25.08
2022-11-17T04:54:25.778Z,23.40
2022-11-17T04:56:53.751Z,27.42
2022-11-17T04:59:20.866Z,23.75
2022-11-17T05:01:48.177Z,27.90
2022-11-17T05:04:40.547Z,25.65
2022-11-17T05:07:08.941Z,24.90
2022-11-17T05:09:36.334Z,25.92
2022-11-17T05:12:21.536Z,24.23
2022-11-17T05:14:50.423Z,25.95
2022-11-17T05:17:17.679Z,26.63
2022-11-17T05:19:46.667Z,27.27
2022-11-17T05:22:36.519Z,26.42
2022-11-17T05:25:04.508Z,25.35
2022-11-17T05:27:31.910Z,26.10
2022-11-17T05:29:58.632Z,24.38
2022-11-17T05:32:25.544Z,24.38
2022-11-17T05:34:52.393Z,23.67
2022-11-17T05:37:19.218Z,24.75
2022-11-17T05:39:46.022Z,24.48
2022-11-17T05:42:12.832Z,23.38
2022-11-17T05:44:40.120Z,26.10
2022-11-17T05:47:07.032Z,22.42
2022-11-17T05:49:33.954Z,23.40
2022-11-17T05:52:00.862Z,23.30
2022-11-17T05:54:27.765Z,20.38
2022-11-17T05:57:08.922Z,20.35
2022-11-17T05:59:46.895Z,21.50
2022-11-17T06:02:40.225Z,21.05
2022-11-17T06:05:08.329Z,19.30
2022-11-17T06:07:36.861Z,20.77
2022-11-17T06:10:04.005Z,21.35
2022-11-17T06:12:30.771Z,20.35
2022-11-17T06:14:57.751Z,20.95
2022-11-17T06:17:30.873Z,21.95
2022-11-17T06:20:29.226Z,23.80
2022-11-17T06:23:00.340Z,24.77
2022-11-17T06:25:28.427Z,21.52
2022-11-17T06:27:57.181Z,21.77
2022-11-17T06:30:24.065Z,23.15
2022-11-17T06:32:51.266Z,23.67
2022-11-17T06:35:18.248Z,20.25
2022-11-17T06:37:45.123Z,18.50
2022-11-17T06:40:13.488Z,18.08
2022-11-17T06:42:59.169Z,16.02
2022-11-17T06:45:26.112Z,18.58
2022-11-17T06:47:53.909Z,17.77
2022-11-17T06:50:20.789Z,16.80
2022-11-17T06:52:47.606Z,14.35
2022-11-17T06:55:14.616Z,11.07
2022-11-17T06:57:41.511Z,15.32
2022-11-17T07:00:09.357Z,12.65
2022-11-17T07:02:37.301Z,12.23
2022-11-17T07:05:04.864Z,12.40
2022-11-17T07:07:31.812Z,13.73
2022-11-17T07:09:58.688Z,13.13
2022-11-17T07:12:25.656Z,11.50
2022-11-17T07:14:52.526Z,10.40
2022-11-17T07:17:19.437Z,9.35
2022-11-17T07:19:46.196Z,11.18
2022-11-17T07:22:13.088Z,10.45
2022-11-17T07:24:40.175Z,8.68
2022-11-17T07:27:07.159Z,9.48
2022-11-17T07:29:34.018Z,10.05
2022-11-17T07:32:00.865Z,11.80
2022-11-17T07:34:27.907Z,9.10
2022-11-17T07:36:54.880Z,9.88
2022-11-17T07:39:22.161Z,11.05
2022-11-17T07:41:49.150Z,10.25
2022-11-17T07:44:16.147Z,9.63
2022-11-17T07:46:43.049Z,10.20
2022-11-17T07:49:09.940Z,9.32
2022-11-17T07:51:36.832Z,9.68
2022-11-17T07:54:03.852Z,10.18
2022-11-17T07:56:30.968Z,9.50
2022-11-17T07:58:57.747Z,9.77
2022-11-17T08:01:27.614Z,9.30
2022-11-17T08:03:54.579Z,10.13
2022-11-17T08:06:22.852Z,11.68
2022-11-17T08:08:50.006Z,10.63
2022-11-17T08:11:18.077Z,9.98
2022-11-17T08:13:45.004Z,11.07
2022-11-17T08:16:12.729Z,11.43
2022-11-17T08:18:40.382Z,12.65
2022-11-17T08:21:13.792Z,11.52
2022-11-17T08:23:43.359Z,11.25
2022-11-17T08:26:11.753Z,11.95
2022-11-17T08:28:39.595Z,11.38
2022-11-17T08:31:07.812Z,12.30
2022-11-17T08:33:35.029Z,11.00
2022-11-17T08:36:03.203Z,9.38
2022-11-17T08:38:30.688Z,10.13
2022-11-17T08:41:06.013Z,12.43
2022-11-17T08:43:33.479Z,8.88
2022-11-17T08:46:00.366Z,9.95
2022-11-17T08:48:27.257Z,8.23
2022-11-17T08:50:54.073Z,9.73
2022-11-17T08:53:23.550Z,10.05
2022-11-17T08:55:51.946Z,13.80
2022-11-17T08:58:19.057Z,8.95
2022-11-17T09:00:47.620Z,9.48
2022-11-17T09:03:15.218Z,9.93
2022-11-17T09:05:49.438Z,9.38
2022-11-17T09:11:10.369Z,9.48
2022-11-17T09:13:38.719Z,8.73
2022-11-17T09:16:08.872Z,8.95
2022-11-17T09:18:39.961Z,9.43
2022-11-17T09:21:09.746Z,10.18
2022-11-17T09:23:37.276Z,11.40
2022-11-17T09:26:06.586Z,9.60
2022-11-17T09:28:33.837Z,11.20
2022-11-17T09:31:06.855Z,11.13
2022-11-17T09:33:33.886Z,12.52
2022-11-17T09:36:00.713Z,10.40
2022-11-17T09:38:27.591Z,10.57
2022-11-17T09:40:57.151Z,10.40
2022-11-17T09:44:02.924Z,8.75
2022-11-17T09:46:41.738Z,9.73
2022-11-17T09:49:17.637Z,8.95
2022-11-17T09:51:48.611Z,9.48
2022-11-17T09:55:04.136Z,8.25
2022-11-17T09:57:50.697Z,7.20
2022-11-17T10:00:20.102Z,6.72
2022-11-17T10:02:47.899Z,7.43
2022-11-17T10:05:33.653Z,7.28
2022-11-17T10:08:08.600Z,7.85
2022-11-17T10:10:49.888Z,6.47
2022-11-17T10:13:22.174Z,6.63
2022-11-17T10:15:52.377Z,7.93
2022-11-17T10:18:19.269Z,7.22
2022-11-17T10:20:46.411Z,8.57
2022-11-17T10:23:16.626Z,8.00
2022-11-17T10:25:46.717Z,7.80
2022-11-17T10:28:26.053Z,9.73
2022-11-17T10:31:00.290Z,8.30
2022-11-17T10:33:35.446Z,7.90
2022-11-17T10:36:05.265Z,8.30
2022-11-17T10:38:33.702Z,7.43
2022-11-17T10:41:03.326Z,7.85
2022-11-17T10:43:36.943Z,8.25
2022-11-17T10:46:07.715Z,7.78
2022-11-17T10:48:37.438Z,8.70
2022-11-17T10:51:26.676Z,7.13
2022-11-17T10:54:05.458Z,6.70
2022-11-17T10:56:40.210Z,8.10
2022-11-17T10:59:09.765Z,6.95
2022-11-17T11:01:39.065Z,6.05
2022-11-17T11:04:08.129Z,6.60
2022-11-17T11:06:35.939Z,7.20
2022-11-17T11:09:14.645Z,7.30
2022-11-17T11:11:47.299Z,7.93
2022-11-17T11:15:05.053Z,7.82
2022-11-17T11:17:32.019Z,7.20
2022-11-17T11:19:59.292Z,7.53
2022-11-17T11:22:41.313Z,8.00
2022-11-17T11:25:29.469Z,9.25
2022-11-17T11:28:14.953Z,8.95
2022-11-17T11:30:57.705Z,7.75
2022-11-17T11:33:30.404Z,7.97
2022-11-17T11:36:07.340Z,7.97
2022-11-17T11:38:57.915Z,7.47
2022-11-17T11:41:41.292Z,9.52
2022-11-17T11:44:26.593Z,9.20
2022-11-17T11:46:57.016Z,9.57
2022-11-17T11:49:26.611Z,10.38
2022-11-17T11:51:54.290Z,10.25
2022-11-17T11:54:47.766Z,11.98
2022-11-17T11:57:20.883Z,11.23
2022-11-17T12:00:04.047Z,11.95
2022-11-17T12:02:45.085Z,11.27
2022-11-17T12:05:39.450Z,11.95
2022-11-17T12:08:51.822Z,11.93
2022-11-17T12:11:37.312Z,13.15
2022-11-17T12:14:06.871Z,12.93
2022-11-17T12:16:36.271Z,12.20
2022-11-17T12:19:41.434Z,11.63
2022-11-17T12:24:42.028Z,12.30
2022-11-17T12:27:47.744Z,12.48
2022-11-17T12:30:33.059Z,12.10
2022-11-17T12:33:04.813Z,13.88
2022-11-17T12:35:34.016Z,13.57
2022-11-17T12:38:13.080Z,13.73
2022-11-17T12:40:39.913Z,13.73
2022-11-17T12:43:15.955Z,14.40
2022-11-17T12:46:10.786Z,12.02
2022-11-17T12:48:39.951Z,11.82
2022-11-17T12:51:21.968Z,12.10
2022-11-17T12:54:07.171Z,11.50
2022-11-17T12:57:06.691Z,12.48
2022-11-17T12:59:50.388Z,11.80
2022-11-17T13:02:29.361Z,11.73
2022-11-17T13:05:24.400Z,11.68
2022-11-17T13:08:18.823Z,12.10
2022-11-17T13:10:45.639Z,13.50
2022-11-17T13:13:20.308Z,12.68
2022-11-17T13:15:56.776Z,12.38
2022-11-17T13:18:32.723Z,12.13
2022-11-17T13:21:01.120Z,14.43
2022-11-17T13:23:34.553Z,10.45
2022-11-17T13:26:16.556Z,11.00
2022-11-17T13:28:44.453Z,10.25
2022-11-17T13:31:19.321Z,8.43
2022-11-17T13:34:06.578Z,7.78
2022-11-17T13:36:34.375Z,8.68
2022-11-17T13:39:01.918Z,9.77
2022-11-17T13:41:37.355Z,7.10
2022-11-17T13:44:06.540Z,7.72
2022-11-17T13:46:35.427Z,7.47
2022-11-17T13:49:34.667Z,6.78
2022-11-17T13:52:12.882Z,8.90
2022-11-17T13:54:44.544Z,8.40
2022-11-17T13:57:31.124Z,9.38
2022-11-17T14:00:00.179Z,8.48
2022-11-17T14:02:29.536Z,11.93
2022-11-17T14:05:14.227Z,10.68
2022-11-17T14:07:42.912Z,8.02
2022-11-17T14:10:15.471Z,8.43
2022-11-17T14:12:42.575Z,9.18
2022-11-17T14:15:21.408Z,9.15
2022-11-17T14:17:53.464Z,9.60
2022-11-17T14:20:32.319Z,9.80
2022-11-17T14:23:08.769Z,10.25
2022-11-17T14:25:44.011Z,10.82
2022-11-17T14:28:16.625Z,11.52
2022-11-17T14:30:47.068Z,12.07
2022-11-17T14:33:14.090Z,13.70
2022-11-17T14:35:42.068Z,12.82
2022-11-17T14:38:20.454Z,17.67
2022-11-17T14:40:51.594Z,15.13
2022-11-17T14:43:19.620Z,16.25
2022-11-17T14:45:47.088Z,15.05
2022-11-17T14:48:18.801Z,16.75
2022-11-17T14:50:47.248Z,17.65
2022-11-17T14:53:14.524Z,15.18
2022-11-17T14:55:41.500Z,16.58
2022-11-17T14:58:10.026Z,15.85
2022-11-17T15:00:37.142Z,16.05
2022-11-17T15:03:04.118Z,17.15
2022-11-17T15:05:31.221Z,17.02
2022-11-17T15:07:58.347Z,19.23
2022-11-17T15:10:25.302Z,17.83
2022-11-17T15:27:50.349Z,8.20
2022-11-17T15:30:17.505Z,7.88
2022-11-17T15:32:44.304Z,7.85
2022-11-17T15:35:11.182Z,7.43
2022-11-17T15:37:37.957Z,6.28
2022-11-17T15:40:05.452Z,6.20
2022-11-17T15:42:32.622Z,5.78
2022-11-17T15:44:59.489Z,6.85
2022-11-17T15:47:26.323Z,6.60
2022-11-17T15:49:58.495Z,5.68
2022-11-17T15:52:48.549Z,4.85
2022-11-17T15:55:12.352Z,5.88
2022-11-17T15:57:39.201Z,6.53
2022-11-17T16:00:06.885Z,6.55
2022-11-17T16:02:33.852Z,6.00
2022-11-17T16:05:00.644Z,6.50
2022-11-17T16:07:27.591Z,6.63
2022-11-17T16:09:54.557Z,6.70
2022-11-17T16:12:21.384Z,5.72
2022-11-17T16:14:48.168Z,5.82
2022-11-17T16:17:14.983Z,5.10
2022-11-17T16:19:41.786Z,5.65
2022-11-17T16:22:08.644Z,5.88
2022-11-17T16:24:35.469Z,6.72
2022-11-17T16:27:02.597Z,6.65
2022-11-17T16:29:29.412Z,5.82
2022-11-17T16:31:56.294Z,6.38
2022-11-17T16:34:23.143Z,6.18
2022-11-17T16:36:49.948Z,7.68
2022-11-17T16:39:17.640Z,9.18
2022-11-17T16:41:45.805Z,10.23
2022-11-17T16:44:15.972Z,10.73
2022-11-17T16:46:45.138Z,10.98
2022-11-17T16:49:14.695Z,11.18
2022-11-17T16:51:47.337Z,11.10
2022-11-17T16:54:14.136Z,14.23
2022-11-17T16:56:41.212Z,12.30
2022-11-17T16:59:10.943Z,13.65
2022-11-17T17:01:37.996Z,10.93
2022-11-17T17:04:10.214Z,11.25
2022-11-17T17:06:40.591Z,11.45
2022-11-17T17:09:09.707Z,12.25
2022-11-17T17:11:37.452Z,10.75
2022-11-17T17:14:06.623Z,12.05
2022-11-17T17:16:35.818Z,10.57
2022-11-17T17:19:05.376Z,12.43
2022-11-17T17:21:33.237Z,10.18
2022-11-17T17:24:00.536Z,11.10
2022-11-17T17:26:29.534Z,9.77
2022-11-17T17:29:00.193Z,11.25
2022-11-17T17:31:31.903Z,11.15
2022-11-17T17:34:02.165Z,11.77
2022-11-17T17:36:29.249Z,12.18
2022-11-17T17:38:58.030Z,11.38
2022-11-17T17:41:27.512Z,12.27
2022-11-17T17:43:58.367Z,11.77
2022-11-17T17:46:25.580Z,12.93
2022-11-17T17:48:53.068Z,13.70
2022-11-17T17:51:21.591Z,13.52
2022-11-17T17:53:50.251Z,14.40
2022-11-17T17:56:19.902Z,14.32
2022-11-17T17:58:48.950Z,13.57
2022-11-17T18:01:22.058Z,14.27
2022-11-17T18:03:51.340Z,15.02
2022-11-17T18:06:19.997Z,14.18
2022-11-17T18:08:47.356Z,14.80
2022-11-17T18:11:20.100Z,14.85
2022-11-17T18:13:49.685Z,14.77
2022-11-17T18:16:24.252Z,15.40
2022-11-17T18:18:56.868Z,14.00
2022-11-17T18:21:24.047Z,13.90
2022-11-17T18:23:53.294Z,14.20
2022-11-17T18:26:22.810Z,12.82
2022-11-17T18:29:14.942Z,12.93
2022-11-17T18:31:42.748Z,12.38
2022-11-17T18:34:21.680Z,11.93
2022-11-17T18:36:49.280Z,13.18
2022-11-17T18:39:16.652Z,11.82
2022-11-17T18:41:44.180Z,12.68
2022-11-17T18:44:15.563Z,12.95
2022-11-17T18:46:42.636Z,12.25
2022-11-17T18:49:09.549Z,12.63
2022-11-17T18:51:36.382Z,14.25
2022-11-17T18:54:03.799Z,13.32
2022-11-17T18:56:37.873Z,13.45
2022-11-17T18:59:12.304Z,12.50
2022-11-17T19:01:40.832Z,15.07
2022-11-17T19:04:07.881Z,15.05
2022-11-17T19:06:34.938Z,14.95
2022-11-17T19:09:02.005Z,15.43
2022-11-17T19:11:33.692Z,14.57
2022-11-17T19:14:02.505Z,15.48
2022-11-17T19:16:29.775Z,15.25
2022-11-17T19:18:57.411Z,15.55
2022-11-17T19:21:26.960Z,12.73
2022-11-17T19:23:57.251Z,10.80
2022-11-17T19:26:27.018Z,8.50
2022-11-17T19:28:58.448Z,8.75
2022-11-17T19:31:25.983Z,6.97
2022-11-17T19:33:54.208Z,7.10
2022-11-17T19:36:23.856Z,7.50
2022-11-17T19:38:55.099Z,8.20
2022-11-17T19:41:24.216Z,6.97
2022-11-17T19:43:55.869Z,7.45
2022-11-17T19:46:24.700Z,6.85
2022-11-17T19:48:51.604Z,6.85
2022-11-17T19:51:32.484Z,6.85
2022-11-17T19:54:03.013Z,6.93
2022-11-17T19:56:30.201Z,7.35
2022-11-17T19:58:57.603Z,9.13
2022-11-17T20:01:27.684Z,10.73
2022-11-17T20:03:55.096Z,8.63
2022-11-17T20:06:27.527Z,15.80
2022-11-17T20:08:57.419Z,14.95
2022-11-17T20:11:27.002Z,14.57
2022-11-17T20:13:54.874Z,14.52
2022-11-17T20:16:24.994Z,14.82
2022-11-17T20:18:56.052Z,14.13
2022-11-17T20:21:24.161Z,14.18
2022-11-17T20:23:51.255Z,12.88
2022-11-17T20:26:20.972Z,10.95
2022-11-17T20:28:48.289Z,11.05
2022-11-17T20:31:19.324Z,11.13
2022-11-17T20:33:47.789Z,10.02
2022-11-17T20:36:20.212Z,9.25
2022-11-17T20:38:51.803Z,8.40
2022-11-17T20:41:21.072Z,7.07
2022-11-17T20:43:49.444Z,8.82
2022-11-17T20:46:16.511Z,7.30
2022-11-17T20:48:44.059Z,6.75
2022-11-17T20:51:19.271Z,6.65
2022-11-17T20:53:46.676Z,8.75
2022-11-17T20:56:16.302Z,7.82
2022-11-17T20:58:43.930Z,6.53
2022-11-17T21:01:19.318Z,6.90
2022-11-17T21:03:46.768Z,6.97
2022-11-17T21:06:14.875Z,7.55
2022-11-17T21:08:43.497Z,6.60
2022-11-17T21:11:36.371Z,6.38
2022-11-17T21:14:05.609Z,6.97
2022-11-17T21:16:32.909Z,6.68
2022-11-17T21:18:59.819Z,6.00
2022-11-17T21:21:26.832Z,6.05
2022-11-17T21:23:54.704Z,6.22
2022-11-17T21:26:23.006Z,7.18
2022-11-17T21:28:50.175Z,6.70
2022-11-17T21:31:22.311Z,6.35
2022-11-17T21:33:53.211Z,5.38
2022-11-17T21:36:20.232Z,4.65
2022-11-17T21:38:47.457Z,5.75
2022-11-17T21:41:15.887Z,5.72
2022-11-17T21:43:44.752Z,6.13
2022-11-17T21:46:32.430Z,4.95
2022-11-17T21:49:00.475Z,4.82
2022-11-17T21:51:28.624Z,5.15
2022-11-17T21:53:57.672Z,4.20
2022-11-17T21:56:27.089Z,4.03
2022-11-17T21:58:59.231Z,4.75
2022-11-17T22:01:26.911Z,4.13
2022-11-17T22:03:53.876Z,4.45
2022-11-17T22:06:24.558Z,3.78
2022-11-17T22:08:53.012Z,4.65
2022-11-17T22:11:37.939Z,4.43
2022-11-17T22:14:25.191Z,4.97
2022-11-17T22:16:53.584Z,4.82
2022-11-17T22:19:22.261Z,4.75
2022-11-17T22:21:51.571Z,4.53
2022-11-17T22:24:19.583Z,4.57
2022-11-17T22:26:46.746Z,3.95
2022-11-17T22:29:16.423Z,4.60
2022-11-17T22:31:44.676Z,4.28
2022-11-17T22:34:13.157Z,4.13
2022-11-17T22:36:40.261Z,4.60
2022-11-17T22:39:07.338Z,3.65
2022-11-17T22:41:34.227Z,3.95
2022-11-17T22:44:01.101Z,4.05
2022-11-17T22:46:28.764Z,3.42
2022-11-17T22:48:56.223Z,4.03
2022-11-17T22:51:41.680Z,3.95
2022-11-17T22:54:08.763Z,3.72
2022-11-17T22:56:36.006Z,3.70
2022-11-17T22:59:03.111Z,4.13
2022-11-17T23:01:29.946Z,4.18
2022-11-17T23:03:57.775Z,3.65
2022-11-17T23:06:24.794Z,3.30
2022-11-17T23:08:51.991Z,4.03
2022-11-17T23:14:09.044Z,4.13
2022-11-17T23:16:39.514Z,3.60
2022-11-17T23:19:06.909Z,3.72
2022-11-17T23:21:33.735Z,4.53
2022-11-17T23:24:00.737Z,3.78
2022-11-17T23:26:27.580Z,4.38
2022-11-17T23:28:54.431Z,3.83
2022-11-17T23:31:21.367Z,4.40
2022-11-17T23:33:49.042Z,4.10
2022-11-17T23:36:18.528Z,3.58
2022-11-17T23:38:45.793Z,3.85
2022-11-17T23:41:14.934Z,4.28
2022-11-17T23:43:42.310Z,4.13
2022-11-17T23:46:18.390Z,4.55
2022-11-17T23:48:45.434Z,4.30
2022-11-17T23:51:14.619Z,4.90
2022-11-17T23:53:42.060Z,4.68
2022-11-17T23:56:10.654Z,4.45
2022-11-17T23:58:38.263Z,3.95
